sensor_id;sensor_type;location;lat;lon;timestamp;P1;durP1;ratioP1;P2;durP2;ratioP2
12869;SDS011;6503;48.572;13.460;2022-12-20T00:00:49;51.28;;;26.02;;
12869;SDS011;6503;48.572;13.460;2022-12-20T00:03:16;50.47;;;25.23;;
12869;SDS011;6503;48.572;13.460;2022-12-20T00:05:44;48.88;;;26.77;;
12869;SDS011;6503;48.572;13.460;2022-12-20T00:08:11;53.22;;;26.63;;
12869;SDS011;6503;48.572;13.460;2022-12-20T00:10:41;46.47;;;25.85;;
12869;SDS011;6503;48.572;13.460;2022-12-20T00:13:11;47.63;;;25.33;;
12869;SDS011;6503;48.572;13.460;2022-12-20T00:15:38;50.80;;;26.98;;
12869;SDS011;6503;48.572;13.460;2022-12-20T00:18:07;49.33;;;24.77;;
12869;SDS011;6503;48.572;13.460;2022-12-20T00:20:35;50.20;;;25.08;;
12869;SDS011;6503;48.572;13.460;2022-12-20T00:23:02;51.70;;;24.00;;
12869;SDS011;6503;48.572;13.460;2022-12-20T00:25:29;50.17;;;26.73;;
12869;SDS011;6503;48.572;13.460;2022-12-20T00:27:58;48.05;;;25.05;;
12869;SDS011;6503;48.572;13.460;2022-12-20T00:30:26;50.03;;;25.88;;
12869;SDS011;6503;48.572;13.460;2022-12-20T00:32:53;45.88;;;24.65;;
12869;SDS011;6503;48.572;13.460;2022-12-20T00:35:20;46.42;;;24.58;;
12869;SDS011;6503;48.572;13.460;2022-12-20T00:37:47;52.42;;;25.42;;
12869;SDS011;6503;48.572;13.460;2022-12-20T00:40:14;45.75;;;24.70;;
12869;SDS011;6503;48.572;13.460;2022-12-20T00:42:41;51.30;;;25.60;;
12869;SDS011;6503;48.572;13.460;2022-12-20T00:45:10;49.08;;;25.30;;
12869;SDS011;6503;48.572;13.460;2022-12-20T00:47:38;54.20;;;26.15;;
12869;SDS011;6503;48.572;13.460;2022-12-20T00:50:05;48.97;;;25.30;;
12869;SDS011;6503;48.572;13.460;2022-12-20T00:52:33;52.53;;;25.55;;
12869;SDS011;6503;48.572;13.460;2022-12-20T00:55:00;52.35;;;24.95;;
12869;SDS011;6503;48.572;13.460;2022-12-20T00:57:29;51.03;;;24.80;;
12869;SDS011;6503;48.572;13.460;2022-12-20T00:59:58;46.78;;;25.48;;
12869;SDS011;6503;48.572;13.460;2022-12-20T01:02:27;52.67;;;25.88;;
12869;SDS011;6503;48.572;13.460;2022-12-20T01:04:54;49.35;;;24.48;;
12869;SDS011;6503;48.572;13.460;2022-12-20T01:07:21;45.38;;;24.13;;
12869;SDS011;6503;48.572;13.460;2022-12-20T01:09:48;51.92;;;24.48;;
12869;SDS011;6503;48.572;13.460;2022-12-20T01:12:16;49.70;;;24.60;;
12869;SDS011;6503;48.572;13.460;2022-12-20T01:14:43;46.92;;;23.42;;
12869;SDS011;6503;48.572;13.460;2022-12-20T01:17:10;51.97;;;24.05;;
12869;SDS011;6503;48.572;13.460;2022-12-20T01:19:39;49.00;;;24.63;;
12869;SDS011;6503;48.572;13.460;2022-12-20T01:22:06;50.22;;;25.55;;
12869;SDS011;6503;48.572;13.460;2022-12-20T01:24:33;46.45;;;24.58;;
12869;SDS011;6503;48.572;13.460;2022-12-20T01:27:00;52.50;;;27.08;;
12869;SDS011;6503;48.572;13.460;2022-12-20T01:29:27;48.53;;;24.75;;
12869;SDS011;6503;48.572;13.460;2022-12-20T01:31:55;43.05;;;24.33;;
12869;SDS011;6503;48.572;13.460;2022-12-20T01:34:22;46.95;;;23.77;;
12869;SDS011;6503;48.572;13.460;2022-12-20T01:36:51;47.33;;;25.33;;
12869;SDS011;6503;48.572;13.460;2022-12-20T01:39:18;47.22;;;23.90;;
12869;SDS011;6503;48.572;13.460;2022-12-20T01:41:46;51.38;;;25.73;;
12869;SDS011;6503;48.572;13.460;2022-12-20T01:47:17;49.30;;;24.73;;
12869;SDS011;6503;48.572;13.460;2022-12-20T01:49:46;47.55;;;23.42;;
12869;SDS011;6503;48.572;13.460;2022-12-20T01:52:19;51.35;;;24.80;;
12869;SDS011;6503;48.572;13.460;2022-12-20T01:54:53;44.90;;;23.60;;
12869;SDS011;6503;48.572;13.460;2022-12-20T01:57:28;46.80;;;24.75;;
12869;SDS011;6503;48.572;13.460;2022-12-20T01:59:59;46.28;;;23.10;;
12869;SDS011;6503;48.572;13.460;2022-12-20T02:02:28;44.05;;;23.70;;
12869;SDS011;6503;48.572;13.460;2022-12-20T02:04:55;50.15;;;24.95;;
12869;SDS011;6503;48.572;13.460;2022-12-20T02:07:24;48.38;;;24.27;;
12869;SDS011;6503;48.572;13.460;2022-12-20T02:09:54;45.80;;;23.13;;
12869;SDS011;6503;48.572;13.460;2022-12-20T02:12:24;49.50;;;23.85;;
12869;SDS011;6503;48.572;13.460;2022-12-20T02:17:44;45.03;;;23.35;;
12869;SDS011;6503;48.572;13.460;2022-12-20T02:26:03;44.60;;;22.55;;
12869;SDS011;6503;48.572;13.460;2022-12-20T02:28:51;48.85;;;23.08;;
12869;SDS011;6503;48.572;13.460;2022-12-20T02:31:36;42.90;;;23.27;;
12869;SDS011;6503;48.572;13.460;2022-12-20T02:34:05;50.83;;;24.65;;
12869;SDS011;6503;48.572;13.460;2022-12-20T02:36:34;48.42;;;23.58;;
12869;SDS011;6503;48.572;13.460;2022-12-20T02:39:01;47.85;;;24.08;;
12869;SDS011;6503;48.572;13.460;2022-12-20T02:41:29;44.13;;;23.00;;
12869;SDS011;6503;48.572;13.460;2022-12-20T02:44:03;48.10;;;23.30;;
12869;SDS011;6503;48.572;13.460;2022-12-20T02:46:52;42.78;;;23.17;;
12869;SDS011;6503;48.572;13.460;2022-12-20T02:49:22;46.33;;;23.50;;
12869;SDS011;6503;48.572;13.460;2022-12-20T02:51:53;42.05;;;22.00;;
12869;SDS011;6503;48.572;13.460;2022-12-20T02:54:22;49.85;;;23.67;;
12869;SDS011;6503;48.572;13.460;2022-12-20T02:56:52;45.38;;;23.08;;
12869;SDS011;6503;48.572;13.460;2022-12-20T02:59:23;46.55;;;22.67;;
12869;SDS011;6503;48.572;13.460;2022-12-20T03:01:56;47.33;;;24.70;;
12869;SDS011;6503;48.572;13.460;2022-12-20T03:04:25;45.30;;;24.15;;
12869;SDS011;6503;48.572;13.460;2022-12-20T03:06:54;43.75;;;23.10;;
12869;SDS011;6503;48.572;13.460;2022-12-20T03:09:25;48.15;;;23.75;;
12869;SDS011;6503;48.572;13.460;2022-12-20T03:11:53;44.15;;;22.33;;
12869;SDS011;6503;48.572;13.460;2022-12-20T03:14:21;45.63;;;23.42;;
12869;SDS011;6503;48.572;13.460;2022-12-20T03:16:51;50.58;;;24.33;;
12869;SDS011;6503;48.572;13.460;2022-12-20T03:19:20;49.33;;;25.35;;
12869;SDS011;6503;48.572;13.460;2022-12-20T03:21:48;48.58;;;23.58;;
12869;SDS011;6503;48.572;13.460;2022-12-20T03:24:16;52.22;;;25.52;;
12869;SDS011;6503;48.572;13.460;2022-12-20T03:26:47;49.40;;;24.13;;
12869;SDS011;6503;48.572;13.460;2022-12-20T03:29:16;47.72;;;22.20;;
12869;SDS011;6503;48.572;13.460;2022-12-20T03:31:44;45.28;;;23.80;;
12869;SDS011;6503;48.572;13.460;2022-12-20T03:34:13;46.25;;;25.13;;
12869;SDS011;6503;48.572;13.460;2022-12-20T03:36:45;49.97;;;24.10;;
12869;SDS011;6503;48.572;13.460;2022-12-20T03:39:14;46.45;;;24.23;;
12869;SDS011;6503;48.572;13.460;2022-12-20T03:41:41;43.83;;;23.70;;
12869;SDS011;6503;48.572;13.460;2022-12-20T03:44:08;51.67;;;25.10;;
12869;SDS011;6503;48.572;13.460;2022-12-20T03:46:36;42.17;;;22.92;;
12869;SDS011;6503;48.572;13.460;2022-12-20T03:49:05;46.25;;;22.92;;
12869;SDS011;6503;48.572;13.460;2022-12-20T03:51:32;48.47;;;23.92;;
12869;SDS011;6503;48.572;13.460;2022-12-20T03:54:01;42.35;;;22.40;;
12869;SDS011;6503;48.572;13.460;2022-12-20T03:56:28;46.13;;;22.83;;
12869;SDS011;6503;48.572;13.460;2022-12-20T03:58:55;44.05;;;23.33;;
12869;SDS011;6503;48.572;13.460;2022-12-20T04:01:23;47.95;;;23.92;;
12869;SDS011;6503;48.572;13.460;2022-12-20T04:03:53;48.50;;;24.77;;
12869;SDS011;6503;48.572;13.460;2022-12-20T04:06:23;45.92;;;22.63;;
12869;SDS011;6503;48.572;13.460;2022-12-20T04:08:51;47.15;;;23.25;;
12869;SDS011;6503;48.572;13.460;2022-12-20T04:11:22;46.03;;;24.05;;
12869;SDS011;6503;48.572;13.460;2022-12-20T04:16:19;46.70;;;21.63;;
12869;SDS011;6503;48.572;13.460;2022-12-20T04:18:49;48.85;;;24.80;;
12869;SDS011;6503;48.572;13.460;2022-12-20T04:21:20;43.33;;;23.30;;
12869;SDS011;6503;48.572;13.460;2022-12-20T04:23:49;47.05;;;23.23;;
12869;SDS011;6503;48.572;13.460;2022-12-20T04:26:18;46.95;;;23.70;;
12869;SDS011;6503;48.572;13.460;2022-12-20T04:31:16;42.78;;;21.58;;
12869;SDS011;6503;48.572;13.460;2022-12-20T04:33:44;49.42;;;24.33;;
12869;SDS011;6503;48.572;13.460;2022-12-20T04:36:13;51.03;;;23.50;;
12869;SDS011;6503;48.572;13.460;2022-12-20T04:38:40;55.97;;;25.85;;
12869;SDS011;6503;48.572;13.460;2022-12-20T04:41:11;49.63;;;23.88;;
12869;SDS011;6503;48.572;13.460;2022-12-20T04:43:46;48.63;;;23.45;;
12869;SDS011;6503;48.572;13.460;2022-12-20T04:48:43;47.05;;;23.02;;
12869;SDS011;6503;48.572;13.460;2022-12-20T04:51:12;44.65;;;22.65;;
12869;SDS011;6503;48.572;13.460;2022-12-20T04:53:39;51.65;;;24.90;;
12869;SDS011;6503;48.572;13.460;2022-12-20T04:56:13;44.85;;;23.77;;
12869;SDS011;6503;48.572;13.460;2022-12-20T04:58:46;44.33;;;23.05;;
12869;SDS011;6503;48.572;13.460;2022-12-20T05:01:17;44.83;;;21.55;;
12869;SDS011;6503;48.572;13.460;2022-12-20T05:03:45;43.95;;;22.58;;
12869;SDS011;6503;48.572;13.460;2022-12-20T05:06:14;43.15;;;21.85;;
12869;SDS011;6503;48.572;13.460;2022-12-20T05:08:42;47.25;;;24.48;;
12869;SDS011;6503;48.572;13.460;2022-12-20T05:11:11;45.50;;;23.20;;
12869;SDS011;6503;48.572;13.460;2022-12-20T05:13:40;48.75;;;24.77;;
12869;SDS011;6503;48.572;13.460;2022-12-20T05:16:09;43.75;;;22.35;;
12869;SDS011;6503;48.572;13.460;2022-12-20T05:18:37;45.10;;;23.70;;
12869;SDS011;6503;48.572;13.460;2022-12-20T05:21:05;48.45;;;23.52;;
12869;SDS011;6503;48.572;13.460;2022-12-20T05:23:51;51.00;;;23.05;;
12869;SDS011;6503;48.572;13.460;2022-12-20T05:26:37;45.83;;;23.88;;
12869;SDS011;6503;48.572;13.460;2022-12-20T05:29:09;42.35;;;22.13;;
12869;SDS011;6503;48.572;13.460;2022-12-20T05:31:36;44.72;;;22.33;;
12869;SDS011;6503;48.572;13.460;2022-12-20T05:34:06;45.60;;;21.77;;
12869;SDS011;6503;48.572;13.460;2022-12-20T05:36:33;42.75;;;21.73;;
12869;SDS011;6503;48.572;13.460;2022-12-20T05:39:04;49.45;;;22.73;;
12869;SDS011;6503;48.572;13.460;2022-12-20T05:41:32;46.22;;;23.95;;
12869;SDS011;6503;48.572;13.460;2022-12-20T05:44:03;42.20;;;22.70;;
12869;SDS011;6503;48.572;13.460;2022-12-20T05:46:32;41.10;;;21.60;;
12869;SDS011;6503;48.572;13.460;2022-12-20T05:48:59;45.90;;;21.30;;
12869;SDS011;6503;48.572;13.460;2022-12-20T05:54:01;43.08;;;21.35;;
12869;SDS011;6503;48.572;13.460;2022-12-20T05:56:28;45.33;;;22.40;;
12869;SDS011;6503;48.572;13.460;2022-12-20T05:58:57;45.03;;;23.98;;
12869;SDS011;6503;48.572;13.460;2022-12-20T06:01:24;46.08;;;22.35;;
12869;SDS011;6503;48.572;13.460;2022-12-20T06:03:51;48.28;;;24.80;;
12869;SDS011;6503;48.572;13.460;2022-12-20T06:06:19;45.70;;;23.15;;
12869;SDS011;6503;48.572;13.460;2022-12-20T06:08:55;41.95;;;22.08;;
12869;SDS011;6503;48.572;13.460;2022-12-20T06:11:24;46.30;;;23.75;;
12869;SDS011;6503;48.572;13.460;2022-12-20T06:13:51;47.28;;;23.90;;
12869;SDS011;6503;48.572;13.460;2022-12-20T06:16:19;50.65;;;23.77;;
12869;SDS011;6503;48.572;13.460;2022-12-20T06:18:48;46.88;;;23.60;;
12869;SDS011;6503;48.572;13.460;2022-12-20T06:21:20;48.13;;;23.08;;
12869;SDS011;6503;48.572;13.460;2022-12-20T06:23:53;43.78;;;22.83;;
12869;SDS011;6503;48.572;13.460;2022-12-20T06:26:25;50.20;;;24.85;;
12869;SDS011;6503;48.572;13.460;2022-12-20T06:29:00;46.40;;;24.58;;
12869;SDS011;6503;48.572;13.460;2022-12-20T06:31:29;49.53;;;25.33;;
12869;SDS011;6503;48.572;13.460;2022-12-20T06:34:02;49.60;;;23.90;;
12869;SDS011;6503;48.572;13.460;2022-12-20T06:36:31;54.88;;;25.40;;
12869;SDS011;6503;48.572;13.460;2022-12-20T06:39:02;50.17;;;25.00;;
12869;SDS011;6503;48.572;13.460;2022-12-20T06:41:30;55.05;;;26.05;;
12869;SDS011;6503;48.572;13.460;2022-12-20T06:43:59;55.00;;;26.50;;
12869;SDS011;6503;48.572;13.460;2022-12-20T06:46:32;52.60;;;26.10;;
12869;SDS011;6503;48.572;13.460;2022-12-20T06:48:59;49.70;;;25.25;;
12869;SDS011;6503;48.572;13.460;2022-12-20T06:51:40;49.35;;;25.67;;
12869;SDS011;6503;48.572;13.460;2022-12-20T07:10:40;48.92;;;23.15;;
12869;SDS011;6503;48.572;13.460;2022-12-20T07:13:33;51.03;;;23.42;;
12869;SDS011;6503;48.572;13.460;2022-12-20T07:16:07;51.65;;;24.95;;
12869;SDS011;6503;48.572;13.460;2022-12-20T07:18:34;47.00;;;23.80;;
12869;SDS011;6503;48.572;13.460;2022-12-20T07:21:06;52.42;;;25.05;;
12869;SDS011;6503;48.572;13.460;2022-12-20T07:23:33;53.80;;;25.40;;
12869;SDS011;6503;48.572;13.460;2022-12-20T07:26:02;53.10;;;25.60;;
12869;SDS011;6503;48.572;13.460;2022-12-20T07:28:46;53.88;;;25.95;;
12869;SDS011;6503;48.572;13.460;2022-12-20T07:31:53;46.72;;;23.88;;
12869;SDS011;6503;48.572;13.460;2022-12-20T07:34:20;48.75;;;24.33;;
12869;SDS011;6503;48.572;13.460;2022-12-20T07:36:49;52.67;;;25.83;;
12869;SDS011;6503;48.572;13.460;2022-12-20T07:39:17;54.55;;;26.75;;
12869;SDS011;6503;48.572;13.460;2022-12-20T07:41:45;48.03;;;23.98;;
12869;SDS011;6503;48.572;13.460;2022-12-20T07:44:12;45.85;;;21.92;;
12869;SDS011;6503;48.572;13.460;2022-12-20T07:46:39;47.58;;;24.10;;
12869;SDS011;6503;48.572;13.460;2022-12-20T07:49:07;46.17;;;23.08;;
12869;SDS011;6503;48.572;13.460;2022-12-20T07:51:38;51.30;;;23.10;;
12869;SDS011;6503;48.572;13.460;2022-12-20T07:57:00;53.55;;;24.65;;
12869;SDS011;6503;48.572;13.460;2022-12-20T07:59:33;55.13;;;26.20;;
12869;SDS011;6503;48.572;13.460;2022-12-20T08:02:06;51.78;;;25.92;;
12869;SDS011;6503;48.572;13.460;2022-12-20T08:05:12;46.97;;;24.58;;
12869;SDS011;6503;48.572;13.460;2022-12-20T08:14:17;50.20;;;23.80;;
12869;SDS011;6503;48.572;13.460;2022-12-20T08:17:06;55.15;;;24.70;;
12869;SDS011;6503;48.572;13.460;2022-12-20T08:22:59;51.35;;;22.92;;
12869;SDS011;6503;48.572;13.460;2022-12-20T08:26:07;51.58;;;23.58;;
12869;SDS011;6503;48.572;13.460;2022-12-20T08:32:13;52.30;;;22.88;;
12869;SDS011;6503;48.572;13.460;2022-12-20T08:34:44;56.33;;;24.35;;
12869;SDS011;6503;48.572;13.460;2022-12-20T08:37:23;55.83;;;23.38;;
12869;SDS011;6503;48.572;13.460;2022-12-20T08:40:12;60.58;;;25.58;;
12869;SDS011;6503;48.572;13.460;2022-12-20T08:43:05;54.97;;;25.98;;
12869;SDS011;6503;48.572;13.460;2022-12-20T08:45:42;61.22;;;27.42;;
12869;SDS011;6503;48.572;13.460;2022-12-20T08:51:41;59.22;;;26.00;;
12869;SDS011;6503;48.572;13.460;2022-12-20T08:54:39;54.83;;;25.02;;
12869;SDS011;6503;48.572;13.460;2022-12-20T09:00:33;60.60;;;26.48;;
12869;SDS011;6503;48.572;13.460;2022-12-20T09:09:36;57.33;;;24.65;;
12869;SDS011;6503;48.572;13.460;2022-12-20T09:14:38;64.55;;;26.38;;
12869;SDS011;6503;48.572;13.460;2022-12-20T09:17:21;60.35;;;25.05;;
12869;SDS011;6503;48.572;13.460;2022-12-20T09:20:11;66.00;;;28.17;;
12869;SDS011;6503;48.572;13.460;2022-12-20T09:25:54;67.47;;;28.23;;
12869;SDS011;6503;48.572;13.460;2022-12-20T09:29:23;65.07;;;27.75;;
12869;SDS011;6503;48.572;13.460;2022-12-20T09:49:35;66.38;;;26.63;;
12869;SDS011;6503;48.572;13.460;2022-12-20T09:52:34;60.20;;;26.10;;
12869;SDS011;6503;48.572;13.460;2022-12-20T09:55:21;61.50;;;26.45;;
12869;SDS011;6503;48.572;13.460;2022-12-20T09:58:17;63.67;;;27.17;;
12869;SDS011;6503;48.572;13.460;2022-12-20T10:00:58;61.10;;;25.52;;
12869;SDS011;6503;48.572;13.460;2022-12-20T10:03:45;64.07;;;26.40;;
12869;SDS011;6503;48.572;13.460;2022-12-20T10:10:13;61.53;;;26.38;;
12869;SDS011;6503;48.572;13.460;2022-12-20T10:13:06;57.58;;;24.95;;
12869;SDS011;6503;48.572;13.460;2022-12-20T10:15:49;63.85;;;26.35;;
12869;SDS011;6503;48.572;13.460;2022-12-20T10:18:23;67.53;;;26.88;;
12869;SDS011;6503;48.572;13.460;2022-12-20T10:24:58;59.80;;;25.23;;
12869;SDS011;6503;48.572;13.460;2022-12-20T10:28:08;66.40;;;27.75;;
12869;SDS011;6503;48.572;13.460;2022-12-20T10:31:23;67.78;;;28.48;;
12869;SDS011;6503;48.572;13.460;2022-12-20T10:33:57;65.18;;;26.50;;
12869;SDS011;6503;48.572;13.460;2022-12-20T10:36:27;58.15;;;26.98;;
12869;SDS011;6503;48.572;13.460;2022-12-20T11:16:44;61.53;;;25.90;;
12869;SDS011;6503;48.572;13.460;2022-12-20T11:22:26;62.83;;;27.45;;
12869;SDS011;6503;48.572;13.460;2022-12-20T11:25:03;61.70;;;25.83;;
12869;SDS011;6503;48.572;13.460;2022-12-20T11:27:48;60.53;;;26.33;;
12869;SDS011;6503;48.572;13.460;2022-12-20T11:30:30;61.65;;;26.25;;
12869;SDS011;6503;48.572;13.460;2022-12-20T11:33:17;61.25;;;26.63;;
12869;SDS011;6503;48.572;13.460;2022-12-20T11:36:00;64.82;;;28.52;;
12869;SDS011;6503;48.572;13.460;2022-12-20T11:38:36;60.40;;;26.98;;
12869;SDS011;6503;48.572;13.460;2022-12-20T11:44:21;63.35;;;27.50;;
12869;SDS011;6503;48.572;13.460;2022-12-20T11:47:03;63.45;;;28.40;;
12869;SDS011;6503;48.572;13.460;2022-12-20T11:53:02;60.45;;;26.33;;
12869;SDS011;6503;48.572;13.460;2022-12-20T11:56:06;58.70;;;25.20;;
12869;SDS011;6503;48.572;13.460;2022-12-20T11:59:09;64.60;;;27.08;;
12869;SDS011;6503;48.572;13.460;2022-12-20T12:01:52;64.78;;;26.63;;
12869;SDS011;6503;48.572;13.460;2022-12-20T12:04:40;67.40;;;28.02;;
12869;SDS011;6503;48.572;13.460;2022-12-20T12:07:14;66.85;;;29.67;;
12869;SDS011;6503;48.572;13.460;2022-12-20T12:13:05;68.07;;;27.40;;
12869;SDS011;6503;48.572;13.460;2022-12-20T12:16:49;65.28;;;28.17;;
12869;SDS011;6503;48.572;13.460;2022-12-20T12:19:40;64.43;;;26.13;;
12869;SDS011;6503;48.572;13.460;2022-12-20T12:22:41;69.38;;;27.65;;
12869;SDS011;6503;48.572;13.460;2022-12-20T12:25:18;68.70;;;28.38;;
12869;SDS011;6503;48.572;13.460;2022-12-20T12:28:22;69.45;;;28.45;;
12869;SDS011;6503;48.572;13.460;2022-12-20T12:31:12;61.22;;;26.83;;
12869;SDS011;6503;48.572;13.460;2022-12-20T12:33:47;61.80;;;26.40;;
12869;SDS011;6503;48.572;13.460;2022-12-20T12:36:30;65.13;;;27.95;;
12869;SDS011;6503;48.572;13.460;2022-12-20T12:39:22;66.05;;;27.92;;
12869;SDS011;6503;48.572;13.460;2022-12-20T12:42:19;69.13;;;27.95;;
12869;SDS011;6503;48.572;13.460;2022-12-20T12:45:19;64.20;;;27.38;;
12869;SDS011;6503;48.572;13.460;2022-12-20T12:47:53;71.40;;;27.83;;
12869;SDS011;6503;48.572;13.460;2022-12-20T12:50:24;69.70;;;28.98;;
12869;SDS011;6503;48.572;13.460;2022-12-20T12:52:55;75.63;;;29.52;;
12869;SDS011;6503;48.572;13.460;2022-12-20T12:55:40;72.07;;;28.77;;
12869;SDS011;6503;48.572;13.460;2022-12-20T12:58:14;68.55;;;27.83;;
12869;SDS011;6503;48.572;13.460;2022-12-20T13:00:58;65.30;;;27.65;;
12869;SDS011;6503;48.572;13.460;2022-12-20T13:03:45;68.43;;;29.67;;
12869;SDS011;6503;48.572;13.460;2022-12-20T13:06:52;70.13;;;28.13;;
12869;SDS011;6503;48.572;13.460;2022-12-20T13:09:36;69.47;;;28.63;;
12869;SDS011;6503;48.572;13.460;2022-12-20T13:18:24;64.90;;;28.05;;
12869;SDS011;6503;48.572;13.460;2022-12-20T13:26:55;70.05;;;27.85;;
12869;SDS011;6503;48.572;13.460;2022-12-20T13:29:26;69.80;;;27.95;;
12869;SDS011;6503;48.572;13.460;2022-12-20T13:31:58;68.97;;;27.70;;
12869;SDS011;6503;48.572;13.460;2022-12-20T13:34:36;73.60;;;30.13;;
12869;SDS011;6503;48.572;13.460;2022-12-20T13:37:24;70.97;;;29.75;;
12869;SDS011;6503;48.572;13.460;2022-12-20T13:39:55;68.65;;;29.15;;
12869;SDS011;6503;48.572;13.460;2022-12-20T13:42:31;70.47;;;28.60;;
12869;SDS011;6503;48.572;13.460;2022-12-20T13:45:05;65.60;;;28.33;;
12869;SDS011;6503;48.572;13.460;2022-12-20T13:47:43;70.30;;;29.25;;
12869;SDS011;6503;48.572;13.460;2022-12-20T13:50:22;68.15;;;27.88;;
12869;SDS011;6503;48.572;13.460;2022-12-20T13:52:53;69.63;;;27.23;;
12869;SDS011;6503;48.572;13.460;2022-12-20T13:55:31;70.10;;;29.17;;
12869;SDS011;6503;48.572;13.460;2022-12-20T13:58:03;65.82;;;27.13;;
12869;SDS011;6503;48.572;13.460;2022-12-20T14:00:32;66.47;;;26.58;;
12869;SDS011;6503;48.572;13.460;2022-12-20T14:03:01;65.55;;;28.05;;
12869;SDS011;6503;48.572;13.460;2022-12-20T14:05:35;68.75;;;28.52;;
12869;SDS011;6503;48.572;13.460;2022-12-20T14:08:16;67.93;;;28.95;;
12869;SDS011;6503;48.572;13.460;2022-12-20T14:11:07;67.93;;;28.00;;
12869;SDS011;6503;48.572;13.460;2022-12-20T14:13:50;68.38;;;29.05;;
12869;SDS011;6503;48.572;13.460;2022-12-20T14:16:30;69.90;;;28.27;;
12869;SDS011;6503;48.572;13.460;2022-12-20T14:19:03;71.45;;;29.65;;
12869;SDS011;6503;48.572;13.460;2022-12-20T14:21:51;69.05;;;27.88;;
12869;SDS011;6503;48.572;13.460;2022-12-20T14:24:19;68.47;;;27.95;;
12869;SDS011;6503;48.572;13.460;2022-12-20T14:26:54;68.85;;;27.85;;
12869;SDS011;6503;48.572;13.460;2022-12-20T14:29:37;76.35;;;28.17;;
12869;SDS011;6503;48.572;13.460;2022-12-20T14:32:50;73.72;;;29.65;;
12869;SDS011;6503;48.572;13.460;2022-12-20T14:35:38;74.72;;;29.80;;
12869;SDS011;6503;48.572;13.460;2022-12-20T14:42:26;73.72;;;28.60;;
12869;SDS011;6503;48.572;13.460;2022-12-20T14:45:01;73.57;;;29.88;;
12869;SDS011;6503;48.572;13.460;2022-12-20T14:47:30;74.15;;;28.77;;
12869;SDS011;6503;48.572;13.460;2022-12-20T14:49:58;73.72;;;30.52;;
12869;SDS011;6503;48.572;13.460;2022-12-20T14:52:29;70.50;;;30.85;;
12869;SDS011;6503;48.572;13.460;2022-12-20T14:55:06;76.15;;;29.77;;
12869;SDS011;6503;48.572;13.460;2022-12-20T14:57:42;80.78;;;30.40;;
12869;SDS011;6503;48.572;13.460;2022-12-20T15:00:24;73.10;;;29.73;;
12869;SDS011;6503;48.572;13.460;2022-12-20T15:03:13;72.78;;;28.92;;
12869;SDS011;6503;48.572;13.460;2022-12-20T15:05:55;70.20;;;27.70;;
12869;SDS011;6503;48.572;13.460;2022-12-20T15:08:26;71.57;;;29.98;;
12869;SDS011;6503;48.572;13.460;2022-12-20T15:11:09;70.38;;;28.23;;
12869;SDS011;6503;48.572;13.460;2022-12-20T15:13:55;75.03;;;29.00;;
12869;SDS011;6503;48.572;13.460;2022-12-20T15:16:26;73.20;;;29.17;;
12869;SDS011;6503;48.572;13.460;2022-12-20T15:18:56;73.50;;;29.63;;
12869;SDS011;6503;48.572;13.460;2022-12-20T15:21:32;72.03;;;28.05;;
12869;SDS011;6503;48.572;13.460;2022-12-20T15:30:29;73.00;;;29.27;;
12869;SDS011;6503;48.572;13.460;2022-12-20T15:37:42;74.38;;;28.88;;
12869;SDS011;6503;48.572;13.460;2022-12-20T15:50:20;75.72;;;30.77;;
12869;SDS011;6503;48.572;13.460;2022-12-20T15:52:57;71.03;;;29.80;;
12869;SDS011;6503;48.572;13.460;2022-12-20T15:56:13;71.25;;;29.17;;
12869;SDS011;6503;48.572;13.460;2022-12-20T15:59:30;64.13;;;25.95;;
12869;SDS011;6503;48.572;13.460;2022-12-20T16:02:31;68.20;;;26.60;;
12869;SDS011;6503;48.572;13.460;2022-12-20T16:08:24;63.25;;;26.23;;
12869;SDS011;6503;48.572;13.460;2022-12-20T16:10:57;60.85;;;25.33;;
12869;SDS011;6503;48.572;13.460;2022-12-20T16:16:16;64.05;;;26.55;;
12869;SDS011;6503;48.572;13.460;2022-12-20T16:19:13;63.83;;;27.42;;
12869;SDS011;6503;48.572;13.460;2022-12-20T16:22:04;68.85;;;29.52;;
12869;SDS011;6503;48.572;13.460;2022-12-20T16:25:29;69.80;;;28.83;;
12869;SDS011;6503;48.572;13.460;2022-12-20T16:27:46;80.25;;;32.80;;
12869;SDS011;6503;48.572;13.460;2022-12-20T16:31:08;73.50;;;30.05;;
12869;SDS011;6503;48.572;13.460;2022-12-20T16:37:08;74.30;;;31.05;;
12869;SDS011;6503;48.572;13.460;2022-12-20T16:39:48;72.63;;;30.58;;
12869;SDS011;6503;48.572;13.460;2022-12-20T16:42:20;78.45;;;31.05;;
12869;SDS011;6503;48.572;13.460;2022-12-20T16:44:52;74.50;;;30.17;;
12869;SDS011;6503;48.572;13.460;2022-12-20T16:47:28;74.50;;;30.85;;
12869;SDS011;6503;48.572;13.460;2022-12-20T16:49:58;67.93;;;29.00;;
12869;SDS011;6503;48.572;13.460;2022-12-20T16:59:46;63.72;;;27.40;;
12869;SDS011;6503;48.572;13.460;2022-12-20T17:03:05;64.15;;;26.75;;
12869;SDS011;6503;48.572;13.460;2022-12-20T17:08:53;65.03;;;26.35;;
12869;SDS011;6503;48.572;13.460;2022-12-20T17:11:42;62.90;;;25.80;;
12869;SDS011;6503;48.572;13.460;2022-12-20T17:14:19;59.80;;;25.70;;
12869;SDS011;6503;48.572;13.460;2022-12-20T17:20:00;68.28;;;27.30;;
12869;SDS011;6503;48.572;13.460;2022-12-20T17:22:49;62.60;;;26.13;;
12869;SDS011;6503;48.572;13.460;2022-12-20T17:25:27;68.20;;;27.27;;
12869;SDS011;6503;48.572;13.460;2022-12-20T17:28:31;66.95;;;26.80;;
12869;SDS011;6503;48.572;13.460;2022-12-20T17:34:30;64.68;;;25.77;;
12869;SDS011;6503;48.572;13.460;2022-12-20T17:40:44;60.30;;;25.80;;
12869;SDS011;6503;48.572;13.460;2022-12-20T17:43:25;64.82;;;28.50;;
12869;SDS011;6503;48.572;13.460;2022-12-20T17:45:53;62.97;;;26.92;;
12869;SDS011;6503;48.572;13.460;2022-12-20T17:48:34;65.60;;;27.25;;
12869;SDS011;6503;48.572;13.460;2022-12-20T17:57:42;69.97;;;27.73;;
12869;SDS011;6503;48.572;13.460;2022-12-20T18:00:15;72.45;;;28.17;;
12869;SDS011;6503;48.572;13.460;2022-12-20T18:02:59;67.50;;;28.48;;
12869;SDS011;6503;48.572;13.460;2022-12-20T18:05:42;66.43;;;29.13;;
12869;SDS011;6503;48.572;13.460;2022-12-20T18:08:21;80.38;;;34.03;;
12869;SDS011;6503;48.572;13.460;2022-12-20T18:11:12;90.00;;;35.70;;
12869;SDS011;6503;48.572;13.460;2022-12-20T18:13:43;77.80;;;32.45;;
12869;SDS011;6503;48.572;13.460;2022-12-20T18:16:16;81.68;;;33.05;;
12869;SDS011;6503;48.572;13.460;2022-12-20T18:19:14;87.60;;;34.42;;
12869;SDS011;6503;48.572;13.460;2022-12-20T18:22:25;83.18;;;34.00;;
12869;SDS011;6503;48.572;13.460;2022-12-20T18:24:56;84.10;;;35.55;;
12869;SDS011;6503;48.572;13.460;2022-12-20T18:27:23;88.38;;;34.78;;
12869;SDS011;6503;48.572;13.460;2022-12-20T18:29:53;73.63;;;32.47;;
12869;SDS011;6503;48.572;13.460;2022-12-20T18:32:23;74.35;;;31.58;;
12869;SDS011;6503;48.572;13.460;2022-12-20T18:35:08;68.00;;;28.23;;
12869;SDS011;6503;48.572;13.460;2022-12-20T18:37:59;75.45;;;27.77;;
12869;SDS011;6503;48.572;13.460;2022-12-20T18:43:13;72.43;;;26.95;;
12869;SDS011;6503;48.572;13.460;2022-12-20T18:45:58;65.97;;;27.20;;
12869;SDS011;6503;48.572;13.460;2022-12-20T18:48:50;71.70;;;28.27;;
12869;SDS011;6503;48.572;13.460;2022-12-20T18:54:23;61.20;;;26.15;;
12869;SDS011;6503;48.572;13.460;2022-12-20T18:59:54;65.20;;;26.42;;
12869;SDS011;6503;48.572;13.460;2022-12-20T19:08:19;64.47;;;25.35;;
12869;SDS011;6503;48.572;13.460;2022-12-20T19:11:03;63.63;;;25.75;;